sensor_id;sensor_type;location;lat;lon;timestamp;pressure;altitude;pressure_sealevel;temperature;humidity
70407;BME280;57821;52.202;0.154;2023-04-25T00:01:48;101544.44;;;4.05;71.45
70407;BME280;57821;52.202;0.154;2023-04-25T00:04:15;101551.31;;;4.06;71.45
70407;BME280;57821;52.202;0.154;2023-04-25T00:06:42;101556.47;;;4.06;71.75
70407;BME280;57821;52.202;0.154;2023-04-25T00:09:09;101564.97;;;4.05;71.21
70407;BME280;57821;52.202;0.154;2023-04-25T00:11:36;101556.34;;;4.03;71.42
70407;BME280;57821;52.202;0.154;2023-04-25T00:14:04;101547.72;;;4.01;71.55
70407;BME280;57821;52.202;0.154;2023-04-25T00:16:31;101546.72;;;3.98;71.79
70407;BME280;57821;52.202;0.154;2023-04-25T00:18:57;101548.31;;;3.94;72.57
70407;BME280;57821;52.202;0.154;2023-04-25T00:21:24;101559.50;;;3.96;71.56
70407;BME280;57821;52.202;0.154;2023-04-25T00:23:52;101552.50;;;3.92;72.35
70407;BME280;57821;52.202;0.154;2023-04-25T00:26:19;101553.31;;;3.91;72.39
70407;BME280;57821;52.202;0.154;2023-04-25T00:28:45;101547.09;;;3.85;72.04
70407;BME280;57821;52.202;0.154;2023-04-25T00:31:12;101553.22;;;3.88;72.41
70407;BME280;57821;52.202;0.154;2023-04-25T00:33:39;101556.53;;;3.86;72.59
70407;BME280;57821;52.202;0.154;2023-04-25T00:36:06;101553.81;;;3.81;72.54
70407;BME280;57821;52.202;0.154;2023-04-25T00:38:33;101559.69;;;3.79;72.21
70407;BME280;57821;52.202;0.154;2023-04-25T00:41:00;101567.41;;;3.79;71.99
70407;BME280;57821;52.202;0.154;2023-04-25T00:43:27;101552.56;;;3.70;72.92
70407;BME280;57821;52.202;0.154;2023-04-25T00:45:55;101562.91;;;3.73;73.04
70407;BME280;57821;52.202;0.154;2023-04-25T00:48:23;101574.13;;;3.75;72.58
70407;BME280;57821;52.202;0.154;2023-04-25T00:50:57;101570.63;;;3.73;73.04
70407;BME280;57821;52.202;0.154;2023-04-25T00:53:26;101568.75;;;3.69;72.82
70407;BME280;57821;52.202;0.154;2023-04-25T00:55:54;101565.25;;;3.67;73.13
70407;BME280;57821;52.202;0.154;2023-04-25T00:58:21;101573.81;;;3.66;72.76
70407;BME280;57821;52.202;0.154;2023-04-25T01:00:50;101573.81;;;3.66;73.44
70407;BME280;57821;52.202;0.154;2023-04-25T01:03:17;101567.78;;;3.65;72.62
70407;BME280;57821;52.202;0.154;2023-04-25T01:05:45;101564.22;;;3.62;73.20
70407;BME280;57821;52.202;0.154;2023-04-25T01:08:12;101568.31;;;3.57;72.59
70407;BME280;57821;52.202;0.154;2023-04-25T01:10:39;101570.88;;;3.57;73.27
70407;BME280;57821;52.202;0.154;2023-04-25T01:13:07;101564.69;;;3.52;73.01
70407;BME280;57821;52.202;0.154;2023-04-25T01:15:34;101577.66;;;3.55;72.60
70407;BME280;57821;52.202;0.154;2023-04-25T01:18:01;101570.72;;;3.52;72.95
70407;BME280;57821;52.202;0.154;2023-04-25T01:20:28;101580.09;;;3.52;72.87
70407;BME280;57821;52.202;0.154;2023-04-25T01:22:56;101575.78;;;3.51;73.22
70407;BME280;57821;52.202;0.154;2023-04-25T01:25:23;101574.72;;;3.46;73.29
70407;BME280;57821;52.202;0.154;2023-04-25T01:27:50;101575.53;;;3.45;73.14
70407;BME280;57821;52.202;0.154;2023-04-25T01:30:17;101560.63;;;3.35;73.37
70407;BME280;57821;52.202;0.154;2023-04-25T01:32:44;101564.13;;;3.37;73.14
70407;BME280;57821;52.202;0.154;2023-04-25T01:35:11;101572.88;;;3.42;73.95
70407;BME280;57821;52.202;0.154;2023-04-25T01:37:42;101565.88;;;3.38;73.44
70407;BME280;57821;52.202;0.154;2023-04-25T01:40:11;101586.41;;;3.38;73.92
70407;BME280;57821;52.202;0.154;2023-04-25T01:42:40;101577.84;;;3.37;73.90
70407;BME280;57821;52.202;0.154;2023-04-25T01:45:08;101578.50;;;3.33;73.17
70407;BME280;57821;52.202;0.154;2023-04-25T01:47:35;101576.75;;;3.32;73.26
70407;BME280;57821;52.202;0.154;2023-04-25T01:50:03;101587.78;;;3.29;73.91
70407;BME280;57821;52.202;0.154;2023-04-25T01:52:31;101595.47;;;3.29;73.91
70407;BME280;57821;52.202;0.154;2023-04-25T01:55:00;101597.91;;;3.26;74.13
70407;BME280;57821;52.202;0.154;2023-04-25T01:57:29;101589.28;;;3.24;73.50
70407;BME280;57821;52.202;0.154;2023-04-25T02:00:01;101595.16;;;3.22;73.99
70407;BME280;57821;52.202;0.154;2023-04-25T02:02:40;101591.69;;;3.20;74.15
70407;BME280;57821;52.202;0.154;2023-04-25T02:05:19;101599.16;;;3.15;74.31
70407;BME280;57821;52.202;0.154;2023-04-25T02:07:47;101613.81;;;3.18;74.66
70407;BME280;57821;52.202;0.154;2023-04-25T02:10:13;101616.28;;;3.16;73.96
70407;BME280;57821;52.202;0.154;2023-04-25T02:13:00;101600.56;;;3.07;74.92
70407;BME280;57821;52.202;0.154;2023-04-25T02:15:42;101605.69;;;3.07;74.42
70407;BME280;57821;52.202;0.154;2023-04-25T02:18:17;101603.06;;;3.06;74.81
70407;BME280;57821;52.202;0.154;2023-04-25T02:20:45;101621.06;;;3.07;74.86
70407;BME280;57821;52.202;0.154;2023-04-25T02:23:11;101612.44;;;3.05;74.59
70407;BME280;57821;52.202;0.154;2023-04-25T02:25:38;101614.06;;;3.03;75.12
70407;BME280;57821;52.202;0.154;2023-04-25T02:28:05;101623.50;;;3.04;74.75
70407;BME280;57821;52.202;0.154;2023-04-25T02:30:32;101613.69;;;2.94;74.78
70407;BME280;57821;52.202;0.154;2023-04-25T02:32:59;101617.19;;;2.96;75.18
70407;BME280;57821;52.202;0.154;2023-04-25T02:35:25;101622.50;;;3.01;74.54
70407;BME280;57821;52.202;0.154;2023-04-25T02:37:54;101616.44;;;2.99;74.52
70407;BME280;57821;52.202;0.154;2023-04-25T02:40:20;101620.56;;;2.95;75.00
70407;BME280;57821;52.202;0.154;2023-04-25T02:42:47;101614.50;;;2.93;74.80
70407;BME280;57821;52.202;0.154;2023-04-25T02:45:14;101616.94;;;2.90;75.21
70407;BME280;57821;52.202;0.154;2023-04-25T02:47:41;101616.81;;;2.87;75.19
70407;BME280;57821;52.202;0.154;2023-04-25T02:50:07;101626.25;;;2.88;75.22
70407;BME280;57821;52.202;0.154;2023-04-25T02:52:35;101623.63;;;2.86;75.55
70407;BME280;57821;52.202;0.154;2023-04-25T02:55:09;101612.19;;;2.78;75.33
70407;BME280;57821;52.202;0.154;2023-04-25T02:57:37;101616.56;;;2.81;75.69
70407;BME280;57821;52.202;0.154;2023-04-25T03:00:05;101623.31;;;2.79;75.43
70407;BME280;57821;52.202;0.154;2023-04-25T03:02:32;101611.19;;;2.75;75.43
70407;BME280;57821;52.202;0.154;2023-04-25T03:04:58;101615.25;;;2.70;75.36
70407;BME280;57821;52.202;0.154;2023-04-25T03:07:26;101619.44;;;2.68;76.00
70407;BME280;57821;52.202;0.154;2023-04-25T03:09:52;101619.31;;;2.65;76.15
70407;BME280;57821;52.202;0.154;2023-04-25T03:12:19;101625.31;;;2.65;75.79
70407;BME280;57821;52.202;0.154;2023-04-25T03:14:46;101622.59;;;2.62;75.97
70407;BME280;57821;52.202;0.154;2023-04-25T03:17:14;101624.16;;;2.59;75.84
70407;BME280;57821;52.202;0.154;2023-04-25T03:19:40;101621.41;;;2.54;76.01
70407;BME280;57821;52.202;0.154;2023-04-25T03:22:07;101635.91;;;2.54;76.17
70407;BME280;57821;52.202;0.154;2023-04-25T03:24:34;101636.63;;;2.51;75.84
70407;BME280;57821;52.202;0.154;2023-04-25T03:27:01;101622.72;;;2.44;76.56
70407;BME280;57821;52.202;0.154;2023-04-25T03:29:27;101635.56;;;2.46;76.51
70407;BME280;57821;52.202;0.154;2023-04-25T03:31:55;101632.00;;;2.42;76.95
70407;BME280;57821;52.202;0.154;2023-04-25T03:34:22;101636.88;;;2.36;76.38
70407;BME280;57821;52.202;0.154;2023-04-25T03:36:49;101641.22;;;2.39;76.29
70407;BME280;57821;52.202;0.154;2023-04-25T03:39:16;101639.44;;;2.36;76.51
70407;BME280;57821;52.202;0.154;2023-04-25T03:41:47;101629.88;;;2.32;76.59
70407;BME280;57821;52.202;0.154;2023-04-25T03:44:15;101633.22;;;2.31;77.05
70407;BME280;57821;52.202;0.154;2023-04-25T03:46:42;101633.84;;;2.26;76.93
70407;BME280;57821;52.202;0.154;2023-04-25T03:49:09;101639.00;;;2.27;76.82
70407;BME280;57821;52.202;0.154;2023-04-25T03:51:59;101641.31;;;2.21;77.29
70407;BME280;57821;52.202;0.154;2023-04-25T03:54:27;101641.44;;;2.24;77.04
70407;BME280;57821;52.202;0.154;2023-04-25T03:57:26;101637.81;;;2.19;76.85
70407;BME280;57821;52.202;0.154;2023-04-25T03:59:53;101634.03;;;2.11;76.98
70407;BME280;57821;52.202;0.154;2023-04-25T04:02:20;101651.28;;;2.15;76.84
70407;BME280;57821;52.202;0.154;2023-04-25T04:04:48;101653.84;;;2.15;76.89
70407;BME280;57821;52.202;0.154;2023-04-25T04:07:16;101657.94;;;2.12;77.30
70407;BME280;57821;52.202;0.154;2023-04-25T04:09:45;101671.59;;;2.12;76.94
70407;BME280;57821;52.202;0.154;2023-04-25T04:12:18;101661.97;;;2.06;77.34
70407;BME280;57821;52.202;0.154;2023-04-25T04:14:45;101665.41;;;2.07;77.21
70407;BME280;57821;52.202;0.154;2023-04-25T04:17:12;101678.31;;;2.10;77.48
70407;BME280;57821;52.202;0.154;2023-04-25T04:19:39;101673.88;;;2.06;77.71
70407;BME280;57821;52.202;0.154;2023-04-25T04:22:11;101681.63;;;2.08;77.26
70407;BME280;57821;52.202;0.154;2023-04-25T04:24:39;101681.72;;;2.09;77.43
70407;BME280;57821;52.202;0.154;2023-04-25T04:27:07;101673.97;;;2.08;77.88
70407;BME280;57821;52.202;0.154;2023-04-25T04:29:47;101667.81;;;2.04;77.50
70407;BME280;57821;52.202;0.154;2023-04-25T04:32:18;101686.88;;;2.11;77.60
70407;BME280;57821;52.202;0.154;2023-04-25T04:34:46;101679.00;;;2.06;77.52
70407;BME280;57821;52.202;0.154;2023-04-25T04:37:15;101681.56;;;2.06;77.26
70407;BME280;57821;52.202;0.154;2023-04-25T04:39:42;101687.72;;;2.10;77.48
70407;BME280;57821;52.202;0.154;2023-04-25T04:42:25;101688.44;;;2.07;78.23
70407;BME280;57821;52.202;0.154;2023-04-25T04:45:02;101691.78;;;2.06;77.90
70407;BME280;57821;52.202;0.154;2023-04-25T04:48:06;101709.69;;;2.06;78.06
70407;BME280;57821;52.202;0.154;2023-04-25T04:50:56;101708.75;;;2.04;77.59
70407;BME280;57821;52.202;0.154;2023-04-25T04:53:48;101705.34;;;2.03;77.36
70407;BME280;57821;52.202;0.154;2023-04-25T04:56:15;101698.38;;;2.01;77.31
70407;BME280;57821;52.202;0.154;2023-04-25T04:59:01;101700.88;;;1.99;77.34
70407;BME280;57821;52.202;0.154;2023-04-25T05:01:47;101712.13;;;2.03;77.36
70407;BME280;57821;52.202;0.154;2023-04-25T05:04:21;101704.47;;;2.03;77.77
70407;BME280;57821;52.202;0.154;2023-04-25T05:06:51;101718.94;;;2.02;77.95
70407;BME280;57821;52.202;0.154;2023-04-25T05:09:38;101723.25;;;2.03;77.77
70407;BME280;57821;52.202;0.154;2023-04-25T05:12:10;101734.47;;;2.07;78.23
70407;BME280;57821;52.202;0.154;2023-04-25T05:14:56;101721.41;;;2.01;77.86
70407;BME280;57821;52.202;0.154;2023-04-25T05:17:41;101731.13;;;2.08;78.31
70407;BME280;57821;52.202;0.154;2023-04-25T05:20:23;101730.25;;;2.08;77.54
70407;BME280;57821;52.202;0.154;2023-04-25T05:22:53;101731.75;;;2.04;77.76
70407;BME280;57821;52.202;0.154;2023-04-25T05:25:52;101744.84;;;2.10;78.36
70407;BME280;57821;52.202;0.154;2023-04-25T05:28:57;101738.00;;;2.09;78.71
70407;BME280;57821;52.202;0.154;2023-04-25T05:31:55;101741.44;;;2.10;78.26
70407;BME280;57821;52.202;0.154;2023-04-25T05:34:23;101749.13;;;2.10;77.99
70407;BME280;57821;52.202;0.154;2023-04-25T05:36:59;101754.34;;;2.13;77.94
70407;BME280;57821;52.202;0.154;2023-04-25T05:39:26;101760.63;;;2.19;78.24
70407;BME280;57821;52.202;0.154;2023-04-25T05:42:23;101759.84;;;2.20;78.05
70407;BME280;57821;52.202;0.154;2023-04-25T05:45:08;101772.75;;;2.23;78.33
70407;BME280;57821;52.202;0.154;2023-04-25T05:48:04;101762.69;;;2.26;78.92
70407;BME280;57821;52.202;0.154;2023-04-25T05:50:58;101750.09;;;2.31;77.96
70407;BME280;57821;52.202;0.154;2023-04-25T05:53:45;101754.59;;;2.36;78.17
70407;BME280;57821;52.202;0.154;2023-04-25T05:56:13;101755.41;;;2.35;78.34
70407;BME280;57821;52.202;0.154;2023-04-25T05:58:40;101766.91;;;2.45;78.10
70407;BME280;57821;52.202;0.154;2023-04-25T06:01:09;101769.56;;;2.46;78.15
70407;BME280;57821;52.202;0.154;2023-04-25T06:03:37;101769.84;;;2.53;79.37
70407;BME280;57821;52.202;0.154;2023-04-25T06:06:04;101768.34;;;2.58;78.21
70407;BME280;57821;52.202;0.154;2023-04-25T06:08:31;101775.69;;;2.69;78.67
70407;BME280;57821;52.202;0.154;2023-04-25T06:10:58;101768.09;;;2.71;78.14
70407;BME280;57821;52.202;0.154;2023-04-25T06:13:24;101784.00;;;2.83;78.70
70407;BME280;57821;52.202;0.154;2023-04-25T06:15:51;101788.50;;;2.88;77.84
70407;BME280;57821;52.202;0.154;2023-04-25T06:18:18;101781.16;;;2.96;78.29
70407;BME280;57821;52.202;0.154;2023-04-25T06:20:45;101779.53;;;2.98;77.34
70407;BME280;57821;52.202;0.154;2023-04-25T06:23:12;101792.78;;;3.09;77.73
70407;BME280;57821;52.202;0.154;2023-04-25T06:25:49;101796.44;;;3.14;77.56
70407;BME280;57821;52.202;0.154;2023-04-25T06:28:22;101801.06;;;3.22;77.85
70407;BME280;57821;52.202;0.154;2023-04-25T06:30:49;101808.16;;;3.28;77.66
70407;BME280;57821;52.202;0.154;2023-04-25T06:33:18;101800.78;;;3.36;77.76
70407;BME280;57821;52.202;0.154;2023-04-25T06:35:44;101795.91;;;3.42;76.60
70407;BME280;57821;52.202;0.154;2023-04-25T06:38:13;101797.09;;;3.50;77.14
70407;BME280;57821;52.202;0.154;2023-04-25T06:40:44;101803.44;;;3.58;77.58
70407;BME280;57821;52.202;0.154;2023-04-25T06:43:11;101798.53;;;3.64;77.36
70407;BME280;57821;52.202;0.154;2023-04-25T06:45:58;101804.72;;;3.69;77.12
70407;BME280;57821;52.202;0.154;2023-04-25T06:48:28;101798.97;;;3.75;76.52
70407;BME280;57821;52.202;0.154;2023-04-25T06:50:54;101808.53;;;3.79;76.21
70407;BME280;57821;52.202;0.154;2023-04-25T06:53:22;101810.50;;;3.84;76.07
70407;BME280;57821;52.202;0.154;2023-04-25T06:55:54;101814.13;;;3.89;76.76
70407;BME280;57821;52.202;0.154;2023-04-25T06:58:22;101817.81;;;3.96;76.50
70407;BME280;57821;52.202;0.154;2023-04-25T07:01:05;101818.91;;;4.02;75.92
70407;BME280;57821;52.202;0.154;2023-04-25T07:03:32;101820.00;;;4.07;76.72
70407;BME280;57821;52.202;0.154;2023-04-25T07:06:03;101826.28;;;4.16;76.90
70407;BME280;57821;52.202;0.154;2023-04-25T07:08:30;101825.72;;;4.23;75.64
70407;BME280;57821;52.202;0.154;2023-04-25T07:10:57;101831.16;;;4.30;76.52
70407;BME280;57821;52.202;0.154;2023-04-25T07:13:24;101829.66;;;4.37;76.01
70407;BME280;57821;52.202;0.154;2023-04-25T07:15:50;101831.66;;;4.44;75.13
70407;BME280;57821;52.202;0.154;2023-04-25T07:18:19;101833.66;;;4.51;76.18
70407;BME280;57821;52.202;0.154;2023-04-25T07:20:46;101827.13;;;4.59;75.85
70407;BME280;57821;52.202;0.154;2023-04-25T07:23:13;101825.81;;;4.70;75.95
70407;BME280;57821;52.202;0.154;2023-04-25T07:25:40;101835.69;;;4.82;74.87
70407;BME280;57821;52.202;0.154;2023-04-25T07:28:07;101839.56;;;4.94;75.67
70407;BME280;57821;52.202;0.154;2023-04-25T07:30:35;101841.66;;;5.05;74.82
70407;BME280;57821;52.202;0.154;2023-04-25T07:33:03;101833.56;;;5.18;74.21
70407;BME280;57821;52.202;0.154;2023-04-25T07:35:29;101837.31;;;5.27;74.64
70407;BME280;57821;52.202;0.154;2023-04-25T07:37:56;101836.91;;;5.41;74.85
70407;BME280;57821;52.202;0.154;2023-04-25T07:40:23;101839.91;;;5.53;73.97
70407;BME280;57821;52.202;0.154;2023-04-25T07:42:55;101844.69;;;5.67;74.13
70407;BME280;57821;52.202;0.154;2023-04-25T07:45:32;101855.44;;;5.81;73.08
70407;BME280;57821;52.202;0.154;2023-04-25T07:47:59;101861.94;;;5.95;73.05
70407;BME280;57821;52.202;0.154;2023-04-25T07:50:27;101868.41;;;6.09;72.38
70407;BME280;57821;52.202;0.154;2023-04-25T07:52:54;101877.28;;;6.19;72.22
70407;BME280;57821;52.202;0.154;2023-04-25T07:55:29;101869.91;;;6.30;72.30
70407;BME280;57821;52.202;0.154;2023-04-25T07:58:02;101872.03;;;6.43;71.65
70407;BME280;57821;52.202;0.154;2023-04-25T08:00:31;101873.28;;;6.55;70.86
70407;BME280;57821;52.202;0.154;2023-04-25T08:03:17;101878.91;;;6.71;70.72
70407;BME280;57821;52.202;0.154;2023-04-25T08:05:45;101881.00;;;6.84;70.38
70407;BME280;57821;52.202;0.154;2023-04-25T08:08:13;101880.50;;;6.95;70.31
70407;BME280;57821;52.202;0.154;2023-04-25T08:10:41;101880.78;;;7.06;69.67
70407;BME280;57821;52.202;0.154;2023-04-25T08:13:08;101888.00;;;7.18;69.63
70407;BME280;57821;52.202;0.154;2023-04-25T08:15:35;101892.56;;;7.26;68.78
70407;BME280;57821;52.202;0.154;2023-04-25T08:18:02;101879.91;;;7.35;68.37
70407;BME280;57821;52.202;0.154;2023-04-25T08:20:30;101882.81;;;7.48;68.62
70407;BME280;57821;52.202;0.154;2023-04-25T08:22:58;101877.91;;;7.58;67.89
70407;BME280;57821;52.202;0.154;2023-04-25T08:25:39;101885.13;;;7.70;67.49
70407;BME280;57821;52.202;0.154;2023-04-25T08:28:06;101884.50;;;7.78;66.81
70407;BME280;57821;52.202;0.154;2023-04-25T08:30:33;101892.47;;;7.88;66.21
70407;BME280;57821;52.202;0.154;2023-04-25T08:32:59;101889.16;;;7.93;66.82
70407;BME280;57821;52.202;0.154;2023-04-25T08:35:55;101904.06;;;8.03;67.20
70407;BME280;57821;52.202;0.154;2023-04-25T08:38:24;101891.34;;;8.12;66.54
70407;BME280;57821;52.202;0.154;2023-04-25T08:40:51;101902.94;;;8.28;66.35
70407;BME280;57821;52.202;0.154;2023-04-25T08:43:19;101917.97;;;8.43;66.12
70407;BME280;57821;52.202;0.154;2023-04-25T08:45:47;101913.09;;;8.55;65.95
70407;BME280;57821;52.202;0.154;2023-04-25T08:48:24;101924.50;;;8.64;64.95
70407;BME280;57821;52.202;0.154;2023-04-25T08:50:53;101924.59;;;8.69;63.90
70407;BME280;57821;52.202;0.154;2023-04-25T08:53:29;101925.09;;;8.90;62.45
70407;BME280;57821;52.202;0.154;2023-04-25T08:56:00;101918.69;;;9.14;63.92
70407;BME280;57821;52.202;0.154;2023-04-25T08:58:27;101917.38;;;9.35;62.55
70407;BME280;57821;52.202;0.154;2023-04-25T09:00:55;101916.03;;;9.56;62.25
70407;BME280;57821;52.202;0.154;2023-04-25T09:03:25;101923.25;;;9.70;61.16
70407;BME280;57821;52.202;0.154;2023-04-25T09:05:52;101926.81;;;9.78;60.11
70407;BME280;57821;52.202;0.154;2023-04-25T09:08:20;101921.84;;;9.89;60.60
70407;BME280;57821;52.202;0.154;2023-04-25T09:10:47;101926.41;;;10.04;59.92
70407;BME280;57821;52.202;0.154;2023-04-25T09:13:14;101925.59;;;10.08;57.95
70407;BME280;57821;52.202;0.154;2023-04-25T09:16:07;101930.75;;;10.05;58.46
70407;BME280;57821;52.202;0.154;2023-04-25T09:19:22;101928.97;;;10.01;57.19
70407;BME280;57821;52.202;0.154;2023-04-25T09:22:05;101936.75;;;10.01;58.03
70407;BME280;57821;52.202;0.154;2023-04-25T09:24:38;101933.19;;;9.96;57.68
70407;BME280;57821;52.202;0.154;2023-04-25T09:27:18;101938.56;;;10.06;57.63
70407;BME280;57821;52.202;0.154;2023-04-25T09:29:47;101932.13;;;10.34;59.18
70407;BME280;57821;52.202;0.154;2023-04-25T09:32:19;101941.16;;;10.57;57.42
70407;BME280;57821;52.202;0.154;2023-04-25T09:34:59;101934.44;;;10.72;56.07
70407;BME280;57821;52.202;0.154;2023-04-25T09:37:29;101927.84;;;10.95;56.50
70407;BME280;57821;52.202;0.154;2023-04-25T09:40:15;101931.16;;;11.54;56.79
70407;BME280;57821;52.202;0.154;2023-04-25T09:43:02;101937.88;;;12.18;54.96
70407;BME280;57821;52.202;0.154;2023-04-25T09:45:41;101930.50;;;12.74;52.66
70407;BME280;57821;52.202;0.154;2023-04-25T09:48:08;101941.22;;;13.28;51.90
70407;BME280;57821;52.202;0.154;2023-04-25T09:50:41;101940.47;;;13.67;51.58
70407;BME280;57821;52.202;0.154;2023-04-25T09:53:10;101935.28;;;13.98;49.38
70407;BME280;57821;52.202;0.154;2023-04-25T09:56:05;101931.81;;;14.27;47.99
70407;BME280;57821;52.202;0.154;2023-04-25T09:58:32;101931.84;;;14.36;46.41
70407;BME280;57821;52.202;0.154;2023-04-25T10:01:02;101929.22;;;14.30;45.49
70407;BME280;57821;52.202;0.154;2023-04-25T10:03:39;101914.44;;;14.29;45.94
70407;BME280;57821;52.202;0.154;2023-04-25T10:06:19;101909.22;;;14.24;44.72
70407;BME280;57821;52.202;0.154;2023-04-25T10:08:50;101930.94;;;14.10;42.48
70407;BME280;57821;52.202;0.154;2023-04-25T10:11:17;101922.25;;;13.86;43.73
70407;BME280;57821;52.202;0.154;2023-04-25T10:13:45;101930.91;;;13.76;43.76
70407;BME280;57821;52.202;0.154;2023-04-25T10:16:11;101927.47;;;13.92;46.14
70407;BME280;57821;52.202;0.154;2023-04-25T10:18:39;101923.13;;;14.34;45.15
70407;BME280;57821;52.202;0.154;2023-04-25T10:21:06;101926.56;;;14.85;45.22
70407;BME280;57821;52.202;0.154;2023-04-25T10:23:33;101928.94;;;15.39;43.35
70407;BME280;57821;52.202;0.154;2023-04-25T10:26:01;101929.69;;;15.69;42.43
70407;BME280;57821;52.202;0.154;2023-04-25T10:28:28;101930.53;;;15.74;41.13
70407;BME280;57821;52.202;0.154;2023-04-25T10:33:37;101938.25;;;15.95;42.22
70407;BME280;57821;52.202;0.154;2023-04-25T10:36:21;101923.97;;;16.35;41.74
70407;BME280;57821;52.202;0.154;2023-04-25T10:38:49;101918.25;;;16.84;41.69
70407;BME280;57821;52.202;0.154;2023-04-25T10:41:20;101921.97;;;17.37;40.75
70407;BME280;57821;52.202;0.154;2023-04-25T10:43:47;101927.72;;;17.66;37.46
70407;BME280;57821;52.202;0.154;2023-04-25T10:46:25;101921.81;;;17.49;36.71
70407;BME280;57821;52.202;0.154;2023-04-25T10:54:09;101921.22;;;17.93;38.33
70407;BME280;57821;52.202;0.154;2023-04-25T10:56:41;101918.34;;;18.06;36.96
70407;BME280;57821;52.202;0.154;2023-04-25T10:59:15;101925.22;;;18.14;35.50
70407;BME280;57821;52.202;0.154;2023-04-25T11:01:47;101918.22;;;18.16;36.05
70407;BME280;57821;52.202;0.154;2023-04-25T11:04:31;101928.34;;;18.35;36.70
70407;BME280;57821;52.202;0.154;2023-04-25T11:09:34;101915.13;;;18.91;34.72
70407;BME280;57821;52.202;0.154;2023-04-25T11:12:00;101920.88;;;19.09;33.71
70407;BME280;57821;52.202;0.154;2023-04-25T11:14:27;101909.91;;;19.31;33.62
70407;BME280;57821;52.202;0.154;2023-04-25T11:16:55;101914.78;;;19.49;33.13
70407;BME280;57821;52.202;0.154;2023-04-25T11:19:26;101917.47;;;19.46;32.97
70407;BME280;57821;52.202;0.154;2023-04-25T11:21:56;101910.09;;;19.21;32.30
70407;BME280;57821;52.202;0.154;2023-04-25T11:24:33;101911.72;;;18.85;32.32
70407;BME280;57821;52.202;0.154;2023-04-25T11:27:02;101914.91;;;18.52;32.96
70407;BME280;57821;52.202;0.154;2023-04-25T11:29:32;101910.25;;;18.20;32.98
70407;BME280;57821;52.202;0.154;2023-04-25T11:31:59;101917.91;;;17.79;33.86
70407;BME280;57821;52.202;0.154;2023-04-25T11:34:28;101907.09;;;17.39;34.49
70407;BME280;57821;52.202;0.154;2023-04-25T11:36:55;101915.34;;;17.07;34.71
70407;BME280;57821;52.202;0.154;2023-04-25T11:39:23;101906.13;;;16.77;33.10
70407;BME280;57821;52.202;0.154;2023-04-25T11:41:51;101917.75;;;16.44;34.33
70407;BME280;57821;52.202;0.154;2023-04-25T11:44:18;101917.19;;;16.10;33.56
70407;BME280;57821;52.202;0.154;2023-04-25T11:46:45;101915.63;;;15.85;33.30
70407;BME280;57821;52.202;0.154;2023-04-25T11:49:15;101914.09;;;15.56;33.24
70407;BME280;57821;52.202;0.154;2023-04-25T11:51:43;101910.69;;;15.33;35.10
70407;BME280;57821;52.202;0.154;2023-04-25T11:54:11;101912.44;;;15.37;35.26
70407;BME280;57821;52.202;0.154;2023-04-25T11:56:41;101908.81;;;15.63;35.25
70407;BME280;57821;52.202;0.154;2023-04-25T11:59:07;101908.53;;;16.02;35.88
70407;BME280;57821;52.202;0.154;2023-04-25T12:01:36;101905.59;;;16.41;35.92
70407;BME280;57821;52.202;0.154;2023-04-25T12:04:17;101907.97;;;16.66;35.92
70407;BME280;57821;52.202;0.154;2023-04-25T12:06:45;101907.91;;;16.72;35.18
70407;BME280;57821;52.202;0.154;2023-04-25T12:09:12;101917.59;;;16.65;34.88
70407;BME280;57821;52.202;0.154;2023-04-25T12:11:48;101919.41;;;16.54;34.95
70407;BME280;57821;52.202;0.154;2023-04-25T12:14:22;101915.19;;;16.38;33.77
70407;BME280;57821;52.202;0.154;2023-04-25T12:16:49;101918.84;;;16.23;33.92
70407;BME280;57821;52.202;0.154;2023-04-25T12:19:16;101914.53;;;16.16;34.39
70407;BME280;57821;52.202;0.154;2023-04-25T12:21:44;101920.69;;;16.12;35.16
70407;BME280;57821;52.202;0.154;2023-04-25T12:24:25;101914.63;;;16.02;34.68
70407;BME280;57821;52.202;0.154;2023-04-25T12:26:58;101927.78;;;15.95;35.77
70407;BME280;57821;52.202;0.154;2023-04-25T12:29:26;101921.72;;;15.88;35.68
70407;BME280;57821;52.202;0.154;2023-04-25T12:32:00;101925.25;;;15.83;35.13
70407;BME280;57821;52.202;0.154;2023-04-25T12:34:26;101930.44;;;15.86;35.60
70407;BME280;57821;52.202;0.154;2023-04-25T12:36:53;101927.75;;;15.96;35.28
70407;BME280;57821;52.202;0.154;2023-04-25T12:39:22;101918.06;;;16.11;34.98
70407;BME280;57821;52.202;0.154;2023-04-25T12:41:50;101926.75;;;16.17;34.90
70407;BME280;57821;52.202;0.154;2023-04-25T12:44:16;101922.41;;;16.13;35.15
70407;BME280;57821;52.202;0.154;2023-04-25T12:46:43;101917.19;;;16.10;35.63
70407;BME280;57821;52.202;0.154;2023-04-25T12:49:09;101916.38;;;16.07;35.90
70407;BME280;57821;52.202;0.154;2023-04-25T12:51:56;101916.50;;;15.88;35.47
70407;BME280;57821;52.202;0.154;2023-04-25T12:54:22;101916.63;;;15.72;34.48
70407;BME280;57821;52.202;0.154;2023-04-25T12:56:49;101921.03;;;15.64;34.86
70407;BME280;57821;52.202;0.154;2023-04-25T12:59:16;101915.78;;;15.64;34.87
70407;BME280;57821;52.202;0.154;2023-04-25T13:01:42;101912.25;;;15.71;34.74
70407;BME280;57821;52.202;0.154;2023-04-25T13:04:09;101918.25;;;15.88;33.94
70407;BME280;57821;52.202;0.154;2023-04-25T13:06:36;101914.75;;;15.89;33.59
70407;BME280;57821;52.202;0.154;2023-04-25T13:09:02;101914.72;;;15.93;33.58
70407;BME280;57821;52.202;0.154;2023-04-25T13:11:29;101910.28;;;16.05;33.91
70407;BME280;57821;52.202;0.154;2023-04-25T13:14:00;101917.25;;;16.07;32.67
70407;BME280;57821;52.202;0.154;2023-04-25T13:16:27;101914.72;;;15.92;33.64
70407;BME280;57821;52.202;0.154;2023-04-25T13:18:53;101919.25;;;15.72;32.44
70407;BME280;57821;52.202;0.154;2023-04-25T13:21:20;101913.22;;;15.51;33.88
70407;BME280;57821;52.202;0.154;2023-04-25T13:23:46;101918.50;;;15.39;34.43
70407;BME280;57821;52.202;0.154;2023-04-25T13:26:13;101920.28;;;15.36;34.60
70407;BME280;57821;52.202;0.154;2023-04-25T13:28:39;101915.81;;;15.57;33.16